createdAt,value
2022-09-02T00:00:01.259Z,14.50
2022-09-02T00:10:00.138Z,13.20
2022-09-02T00:20:00.120Z,15.10
2022-09-02T00:30:00.099Z,20.80
2022-09-02T00:40:00.123Z,18.20
2022-09-02T00:50:00.099Z,39.60
2022-09-02T01:00:00.135Z,14.70
2022-09-02T01:10:00.110Z,14.90
2022-09-02T01:20:00.115Z,15.10
2022-09-02T01:30:00.104Z,15.90
2022-09-02T01:40:00.127Z,21.90
2022-09-02T01:50:00.101Z,11.60
2022-09-02T02:00:00.104Z,22.10
2022-09-02T02:10:01.159Z,14.50
2022-09-02T02:20:01.485Z,12.70
2022-09-02T02:30:00.120Z,19.10
2022-09-02T02:40:00.096Z,10.50
2022-09-02T02:50:00.074Z,10.40
2022-09-02T03:00:00.357Z,9.60
2022-09-02T03:10:00.086Z,11.50
2022-09-02T03:20:00.072Z,7.00
2022-09-02T03:30:00.100Z,8.60
2022-09-02T03:40:00.095Z,9.40
2022-09-02T03:50:00.091Z,9.10
2022-09-02T04:00:01.128Z,10.00
2022-09-02T04:10:00.124Z,10.40
2022-09-02T04:20:00.137Z,14.40
2022-09-02T04:30:00.090Z,7.10
2022-09-02T04:40:00.122Z,8.10
2022-09-02T04:50:00.130Z,8.00
2022-09-02T05:00:00.104Z,20.10
2022-09-02T05:10:00.133Z,9.60
2022-09-02T05:20:00.129Z,13.40
2022-09-02T05:30:00.144Z,22.60
2022-09-02T05:40:00.130Z,39.80
2022-09-02T05:50:00.146Z,17.00
2022-09-02T06:00:00.146Z,21.00
2022-09-02T06:10:00.118Z,22.70
2022-09-02T06:20:00.147Z,26.20
2022-09-02T06:30:00.134Z,24.40
2022-09-02T06:40:00.094Z,47.10
2022-09-02T06:50:00.162Z,33.20
2022-09-02T07:00:02.359Z,29.90
2022-09-02T07:10:00.116Z,23.90
2022-09-02T07:20:00.146Z,32.90
2022-09-02T07:30:00.130Z,27.30
2022-09-02T07:40:00.087Z,28.60
2022-09-02T07:50:18.754Z,28.00
2022-09-02T08:00:00.138Z,25.00
2022-09-02T08:10:00.102Z,47.80
2022-09-02T08:20:00.124Z,27.10
2022-09-02T08:30:00.106Z,35.70
2022-09-02T08:40:00.121Z,30.20
2022-09-02T08:50:00.141Z,39.00
2022-09-02T09:00:00.102Z,53.10
2022-09-02T09:10:00.147Z,106.40
2022-09-02T09:20:00.143Z,106.00
2022-09-02T09:30:00.123Z,55.10
2022-09-02T09:40:00.106Z,70.70
2022-09-02T09:50:00.119Z,78.70
2022-09-02T10:00:00.134Z,136.90
2022-09-02T10:10:00.164Z,282.40
2022-09-02T10:20:01.054Z,500.40
2022-09-02T10:30:00.136Z,422.20
2022-09-02T10:40:00.397Z,512.10
2022-09-02T10:50:00.152Z,476.20
2022-09-02T11:00:00.117Z,642.30
2022-09-02T11:10:00.201Z,671.60
2022-09-02T11:20:00.131Z,723.80
2022-09-02T11:30:00.146Z,727.30
2022-09-02T11:40:11.991Z,723.20
2022-09-02T11:50:00.121Z,746.00
2022-09-02T12:00:00.112Z,748.50
2022-09-02T12:10:00.128Z,794.30
2022-09-02T12:20:00.113Z,784.70
2022-09-02T12:30:00.138Z,752.00
2022-09-02T12:40:00.121Z,720.00
2022-09-02T12:50:00.131Z,798.80
2022-09-02T13:00:00.154Z,728.20
2022-09-02T13:10:00.124Z,711.30
2022-09-02T13:20:00.099Z,721.90
2022-09-02T13:30:00.098Z,726.20
2022-09-02T13:40:00.125Z,704.80
2022-09-02T13:50:00.123Z,697.80
2022-09-02T14:00:00.168Z,728.60
2022-09-02T14:10:00.122Z,724.10
2022-09-02T14:20:02.051Z,668.00
2022-09-02T14:30:00.157Z,666.90
2022-09-02T14:40:00.273Z,668.00
2022-09-02T14:50:00.191Z,668.20
2022-09-02T15:00:00.145Z,672.00
2022-09-02T15:10:00.106Z,679.30
2022-09-02T15:20:00.125Z,655.00
2022-09-02T15:30:00.141Z,618.20
2022-09-02T15:40:00.177Z,611.70
2022-09-02T15:50:00.135Z,665.60
2022-09-02T16:00:00.156Z,622.80
2022-09-02T16:10:03.470Z,655.40
2022-09-02T16:20:00.120Z,699.30
2022-09-02T16:30:00.121Z,607.60
2022-09-02T16:40:00.257Z,312.40
2022-09-02T16:50:00.145Z,142.90
2022-09-02T17:00:00.138Z,330.00
2022-09-02T17:10:00.107Z,469.10
2022-09-02T17:20:00.978Z,428.20
2022-09-02T17:30:00.157Z,182.90
2022-09-02T17:40:00.266Z,194.70
2022-09-02T17:50:00.126Z,181.50
2022-09-02T18:00:00.155Z,188.60
2022-09-02T18:10:00.130Z,194.80
2022-09-02T18:20:00.141Z,214.30
2022-09-02T18:30:00.112Z,201.80
2022-09-02T18:40:02.786Z,186.00
2022-09-02T18:50:00.107Z,230.30
2022-09-02T19:00:01.488Z,169.40
2022-09-02T19:10:00.106Z,135.20
2022-09-02T19:20:00.146Z,115.00
2022-09-02T19:30:00.162Z,88.60
2022-09-02T19:40:03.763Z,92.90
2022-09-02T19:50:00.140Z,90.60
2022-09-02T20:00:00.103Z,165.00
2022-09-02T20:10:00.094Z,107.00
2022-09-02T20:20:00.262Z,177.70
2022-09-02T20:30:00.126Z,167.90
2022-09-02T20:40:01.056Z,66.10
2022-09-02T20:50:00.162Z,72.80
2022-09-02T21:00:00.127Z,71.20
2022-09-02T21:10:00.125Z,126.60
2022-09-02T21:20:00.193Z,95.10
2022-09-02T21:30:02.453Z,146.80
2022-09-02T21:40:00.184Z,106.80
2022-09-02T21:50:00.152Z,103.20
2022-09-02T22:00:00.144Z,73.10
2022-09-02T22:10:00.128Z,102.40
2022-09-02T22:20:00.148Z,104.80
2022-09-02T22:30:00.162Z,170.30
2022-09-02T22:40:00.276Z,111.30
2022-09-02T22:50:00.114Z,142.50
2022-09-02T23:00:01.927Z,95.60
2022-09-02T23:10:00.106Z,52.90
2022-09-02T23:30:00.142Z,46.90
2022-09-02T23:40:00.260Z,48.50
2022-09-02T23:50:00.111Z,33.60
